sensor_id;sensor_type;location;lat;lon;timestamp;pressure;altitude;pressure_sealevel;temperature;humidity
26436;BME280;15351;52.408;16.826;2023-08-17T00:01:05;101197.29;;;24.02;60.69
26436;BME280;15351;52.408;16.826;2023-08-17T00:03:54;101197.77;;;24.00;60.78
26436;BME280;15351;52.408;16.826;2023-08-17T00:07:02;101191.05;;;23.96;60.92
26436;BME280;15351;52.408;16.826;2023-08-17T00:13:19;101190.00;;;23.89;61.23
26436;BME280;15351;52.408;16.826;2023-08-17T00:16:18;101202.66;;;23.91;61.15
26436;BME280;15351;52.408;16.826;2023-08-17T00:19:20;101202.29;;;23.89;61.50
26436;BME280;15351;52.408;16.826;2023-08-17T00:22:42;101204.95;;;23.87;61.50
26436;BME280;15351;52.408;16.826;2023-08-17T00:25:59;101211.76;;;23.83;61.64
26436;BME280;15351;52.408;16.826;2023-08-17T00:29:12;101212.55;;;23.82;61.81
26436;BME280;15351;52.408;16.826;2023-08-17T00:32:43;101207.84;;;23.76;61.90
26436;BME280;15351;52.408;16.826;2023-08-17T00:39:23;101220.58;;;23.76;62.13
26436;BME280;15351;52.408;16.826;2023-08-17T00:42:41;101222.76;;;23.75;62.20
26436;BME280;15351;52.408;16.826;2023-08-17T00:46:06;101232.34;;;23.77;62.43
26436;BME280;15351;52.408;16.826;2023-08-17T00:52:30;101235.23;;;23.78;62.47
26436;BME280;15351;52.408;16.826;2023-08-17T00:55:44;101227.23;;;23.76;62.52
26436;BME280;15351;52.408;16.826;2023-08-17T01:02:15;101221.65;;;23.73;62.72
26436;BME280;15351;52.408;16.826;2023-08-17T01:09:33;101231.26;;;23.70;62.76
26436;BME280;15351;52.408;16.826;2023-08-17T01:12:28;101236.03;;;23.68;62.98
26436;BME280;15351;52.408;16.826;2023-08-17T01:16:37;101224.09;;;23.66;63.08
26436;BME280;15351;52.408;16.826;2023-08-17T01:23:52;101269.39;;;23.72;63.13
26436;BME280;15351;52.408;16.826;2023-08-17T01:31:00;101354.25;;;23.75;63.11
26436;BME280;15351;52.408;16.826;2023-08-17T01:34:32;101378.73;;;23.75;63.00
26436;BME280;15351;52.408;16.826;2023-08-17T01:37:49;101393.35;;;23.73;63.21
26436;BME280;15351;52.408;16.826;2023-08-17T01:44:01;101414.45;;;23.66;64.79
26436;BME280;15351;52.408;16.826;2023-08-17T01:47:30;101423.50;;;23.66;65.69
26436;BME280;15351;52.408;16.826;2023-08-17T01:51:16;101429.52;;;23.67;66.39
26436;BME280;15351;52.408;16.826;2023-08-17T01:58:59;101445.64;;;23.60;67.66
26436;BME280;15351;52.408;16.826;2023-08-17T02:10:16;101412.65;;;23.62;69.46
26436;BME280;15351;52.408;16.826;2023-08-17T02:13:46;101411.77;;;23.67;69.92
26436;BME280;15351;52.408;16.826;2023-08-17T02:17:40;101404.95;;;23.68;69.68
26436;BME280;15351;52.408;16.826;2023-08-17T02:22:02;101392.84;;;23.57;69.59
26436;BME280;15351;52.408;16.826;2023-08-17T02:32:18;101378.88;;;23.53;70.41
26436;BME280;15351;52.408;16.826;2023-08-17T02:35:51;101345.70;;;23.54;70.59
26436;BME280;15351;52.408;16.826;2023-08-17T02:38:40;101321.69;;;23.53;70.51
26436;BME280;15351;52.408;16.826;2023-08-17T02:41:49;101311.31;;;23.49;70.53
26436;BME280;15351;52.408;16.826;2023-08-17T02:45:06;101306.32;;;23.41;70.68
26436;BME280;15351;52.408;16.826;2023-08-17T02:48:10;101313.42;;;23.38;71.08
26436;BME280;15351;52.408;16.826;2023-08-17T03:02:51;101246.27;;;23.34;71.54
26436;BME280;15351;52.408;16.826;2023-08-17T03:09:48;101242.74;;;23.24;71.23
26436;BME280;15351;52.408;16.826;2023-08-17T03:13:04;101221.28;;;23.22;71.36
26436;BME280;15351;52.408;16.826;2023-08-17T03:19:46;101225.19;;;23.14;71.22
26436;BME280;15351;52.408;16.826;2023-08-17T03:23:01;101261.25;;;23.07;71.35
26436;BME280;15351;52.408;16.826;2023-08-17T03:26:24;101281.45;;;22.99;71.72
26436;BME280;15351;52.408;16.826;2023-08-17T03:29:35;101302.99;;;22.93;72.17
26436;BME280;15351;52.408;16.826;2023-08-17T03:35:53;101315.02;;;22.92;72.56
26436;BME280;15351;52.408;16.826;2023-08-17T03:42:27;101372.89;;;23.01;72.46
26436;BME280;15351;52.408;16.826;2023-08-17T03:45:57;101379.30;;;22.95;72.41
26436;BME280;15351;52.408;16.826;2023-08-17T03:52:12;101376.59;;;22.92;72.88
26436;BME280;15351;52.408;16.826;2023-08-17T03:58:30;101392.33;;;22.96;72.88
26436;BME280;15351;52.408;16.826;2023-08-17T04:01:53;101401.39;;;22.97;73.14
26436;BME280;15351;52.408;16.826;2023-08-17T04:04:57;101417.26;;;22.95;73.40
26436;BME280;15351;52.408;16.826;2023-08-17T04:07:53;101450.09;;;22.98;73.69
26436;BME280;15351;52.408;16.826;2023-08-17T04:10:56;101463.34;;;22.95;73.71
26436;BME280;15351;52.408;16.826;2023-08-17T04:14:43;101453.98;;;23.00;73.72
26436;BME280;15351;52.408;16.826;2023-08-17T04:17:56;101425.89;;;23.03;73.46
26436;BME280;15351;52.408;16.826;2023-08-17T04:21:23;101363.30;;;23.02;73.42
26436;BME280;15351;52.408;16.826;2023-08-17T04:24:36;101357.65;;;22.92;73.61
26436;BME280;15351;52.408;16.826;2023-08-17T04:27:15;101372.95;;;22.89;73.53
26436;BME280;15351;52.408;16.826;2023-08-17T04:29:46;101343.19;;;22.85;73.64
26436;BME280;15351;52.408;16.826;2023-08-17T04:32:17;101317.90;;;22.81;73.55
26436;BME280;15351;52.408;16.826;2023-08-17T04:35:01;101326.58;;;22.77;73.42
26436;BME280;15351;52.408;16.826;2023-08-17T04:37:43;101326.31;;;22.74;73.56
26436;BME280;15351;52.408;16.826;2023-08-17T04:40:25;101301.83;;;22.68;73.58
26436;BME280;15351;52.408;16.826;2023-08-17T04:42:56;101264.79;;;22.62;73.72
26436;BME280;15351;52.408;16.826;2023-08-17T04:45:25;101235.27;;;22.60;73.76
26436;BME280;15351;52.408;16.826;2023-08-17T04:48:02;101218.87;;;22.56;73.84
26436;BME280;15351;52.408;16.826;2023-08-17T04:50:53;101203.17;;;22.53;73.75
26436;BME280;15351;52.408;16.826;2023-08-17T04:53:28;101207.08;;;22.46;73.31
26436;BME280;15351;52.408;16.826;2023-08-17T04:56:06;101224.06;;;22.38;73.13
26436;BME280;15351;52.408;16.826;2023-08-17T04:58:53;101224.13;;;22.31;73.10
26436;BME280;15351;52.408;16.826;2023-08-17T05:01:43;101211.16;;;22.23;72.91
26436;BME280;15351;52.408;16.826;2023-08-17T05:04:48;101200.52;;;22.20;73.03
26436;BME280;15351;52.408;16.826;2023-08-17T05:08:00;101201.64;;;22.16;73.14
26436;BME280;15351;52.408;16.826;2023-08-17T05:10:46;101200.90;;;22.14;73.16
26436;BME280;15351;52.408;16.826;2023-08-17T05:13:18;101193.38;;;22.16;73.29
26436;BME280;15351;52.408;16.826;2023-08-17T05:23:27;101189.51;;;22.05;73.45
26436;BME280;15351;52.408;16.826;2023-08-17T05:26:32;101186.63;;;22.06;73.63
26436;BME280;15351;52.408;16.826;2023-08-17T05:29:36;101192.76;;;22.05;73.53
26436;BME280;15351;52.408;16.826;2023-08-17T05:32:08;101195.55;;;22.06;73.44
26436;BME280;15351;52.408;16.826;2023-08-17T05:35:21;101188.25;;;22.01;73.46
26436;BME280;15351;52.408;16.826;2023-08-17T05:38:29;101217.48;;;22.00;73.44
26436;BME280;15351;52.408;16.826;2023-08-17T05:41:42;101230.61;;;21.96;73.51
26436;BME280;15351;52.408;16.826;2023-08-17T05:44:21;101231.75;;;21.96;73.52
26436;BME280;15351;52.408;16.826;2023-08-17T05:46:58;101216.20;;;21.90;73.29
26436;BME280;15351;52.408;16.826;2023-08-17T05:50:53;101213.31;;;21.88;73.45
26436;BME280;15351;52.408;16.826;2023-08-17T05:54:00;101229.23;;;21.86;73.59
26436;BME280;15351;52.408;16.826;2023-08-17T05:56:47;101221.03;;;21.83;73.69
26436;BME280;15351;52.408;16.826;2023-08-17T05:59:18;101201.77;;;21.83;73.78
26436;BME280;15351;52.408;16.826;2023-08-17T06:09:13;101210.34;;;21.70;73.77
26436;BME280;15351;52.408;16.826;2023-08-17T06:11:52;101222.59;;;21.69;73.70
26436;BME280;15351;52.408;16.826;2023-08-17T06:14:41;101227.39;;;21.69;73.73
26436;BME280;15351;52.408;16.826;2023-08-17T06:17:32;101200.42;;;21.70;73.95
26436;BME280;15351;52.408;16.826;2023-08-17T06:20:02;101171.14;;;21.72;74.23
26436;BME280;15351;52.408;16.826;2023-08-17T06:26:52;101154.58;;;21.65;74.21
26436;BME280;15351;52.408;16.826;2023-08-17T06:29:37;101161.63;;;21.66;74.37
26436;BME280;15351;52.408;16.826;2023-08-17T06:39:07;101186.80;;;21.61;74.48
26436;BME280;15351;52.408;16.826;2023-08-17T06:42:03;101199.98;;;21.61;74.35
26436;BME280;15351;52.408;16.826;2023-08-17T06:45:39;101206.19;;;21.62;74.51
26436;BME280;15351;52.408;16.826;2023-08-17T06:55:24;101220.20;;;21.70;75.07
26436;BME280;15351;52.408;16.826;2023-08-17T06:58:48;101223.44;;;21.77;75.12
26436;BME280;15351;52.408;16.826;2023-08-17T07:01:19;101229.35;;;21.81;75.22
26436;BME280;15351;52.408;16.826;2023-08-17T07:04:28;101216.92;;;21.88;75.47
26436;BME280;15351;52.408;16.826;2023-08-17T07:10:28;101224.27;;;21.91;75.07
26436;BME280;15351;52.408;16.826;2023-08-17T07:12:55;101234.77;;;22.02;75.37
26436;BME280;15351;52.408;16.826;2023-08-17T07:15:29;101239.18;;;22.08;75.39
26436;BME280;15351;52.408;16.826;2023-08-17T07:22:42;101244.70;;;22.13;74.93
26436;BME280;15351;52.408;16.826;2023-08-17T07:25:51;101249.36;;;22.18;74.83
26436;BME280;15351;52.408;16.826;2023-08-17T07:28:30;101253.59;;;22.23;74.60
26436;BME280;15351;52.408;16.826;2023-08-17T07:31:20;101261.17;;;22.22;74.22
26436;BME280;15351;52.408;16.826;2023-08-17T07:33:50;101265.41;;;22.20;73.86
26436;BME280;15351;52.408;16.826;2023-08-17T07:36:50;101270.96;;;22.19;73.40
26436;BME280;15351;52.408;16.826;2023-08-17T07:39:30;101270.02;;;22.17;73.23
26436;BME280;15351;52.408;16.826;2023-08-17T07:42:33;101265.92;;;22.17;73.30
26436;BME280;15351;52.408;16.826;2023-08-17T07:45:54;101268.18;;;22.20;73.61
26436;BME280;15351;52.408;16.826;2023-08-17T07:55:15;101279.45;;;22.42;74.00
26436;BME280;15351;52.408;16.826;2023-08-17T08:04:35;101284.48;;;22.74;73.61
26436;BME280;15351;52.408;16.826;2023-08-17T08:07:05;101288.32;;;22.84;73.42
26436;BME280;15351;52.408;16.826;2023-08-17T08:09:35;101287.22;;;22.92;72.84
26436;BME280;15351;52.408;16.826;2023-08-17T08:16:01;101293.59;;;23.14;72.60
26436;BME280;15351;52.408;16.826;2023-08-17T08:19:19;101292.98;;;23.34;73.02
26436;BME280;15351;52.408;16.826;2023-08-17T08:21:53;101290.38;;;23.59;73.40
26436;BME280;15351;52.408;16.826;2023-08-17T08:24:39;101287.45;;;23.82;73.08
26436;BME280;15351;52.408;16.826;2023-08-17T08:27:45;101289.11;;;24.03;72.37
26436;BME280;15351;52.408;16.826;2023-08-17T08:34:19;101289.97;;;24.24;70.91
26436;BME280;15351;52.408;16.826;2023-08-17T08:40:29;101301.27;;;24.33;70.00
26436;BME280;15351;52.408;16.826;2023-08-17T08:43:00;101302.75;;;24.35;69.38
26436;BME280;15351;52.408;16.826;2023-08-17T08:46:12;101306.11;;;24.35;68.87
26436;BME280;15351;52.408;16.826;2023-08-17T08:49:25;101294.31;;;24.28;68.62
26436;BME280;15351;52.408;16.826;2023-08-17T08:56:11;101300.39;;;24.30;68.06
26436;BME280;15351;52.408;16.826;2023-08-17T08:59:01;101306.70;;;24.27;68.27
26436;BME280;15351;52.408;16.826;2023-08-17T09:01:44;101300.30;;;24.24;68.61
26436;BME280;15351;52.408;16.826;2023-08-17T09:08:31;101300.20;;;24.37;68.40
26436;BME280;15351;52.408;16.826;2023-08-17T09:11:54;101297.91;;;24.51;68.30
26436;BME280;15351;52.408;16.826;2023-08-17T09:15:01;101294.12;;;24.66;68.33
26436;BME280;15351;52.408;16.826;2023-08-17T09:18:11;101292.52;;;24.81;67.96
26436;BME280;15351;52.408;16.826;2023-08-17T09:21:55;101297.49;;;24.98;67.87
26436;BME280;15351;52.408;16.826;2023-08-17T09:26:05;101299.48;;;25.11;67.28
26436;BME280;15351;52.408;16.826;2023-08-17T09:29:47;101307.13;;;25.09;66.84
26436;BME280;15351;52.408;16.826;2023-08-17T09:36:20;101300.54;;;25.14;66.78
26436;BME280;15351;52.408;16.826;2023-08-17T09:39:20;101298.23;;;25.20;66.80
26436;BME280;15351;52.408;16.826;2023-08-17T09:42:29;101295.77;;;25.27;66.63
26436;BME280;15351;52.408;16.826;2023-08-17T09:45:57;101296.30;;;25.36;65.89
26436;BME280;15351;52.408;16.826;2023-08-17T09:49:10;101298.39;;;25.42;66.28
26436;BME280;15351;52.408;16.826;2023-08-17T09:52:18;101296.42;;;25.55;66.28
26436;BME280;15351;52.408;16.826;2023-08-17T09:54:55;101295.52;;;25.67;66.15
26436;BME280;15351;52.408;16.826;2023-08-17T09:57:58;101285.79;;;25.77;66.03
26436;BME280;15351;52.408;16.826;2023-08-17T10:00:55;101283.38;;;25.85;65.84
26436;BME280;15351;52.408;16.826;2023-08-17T10:03:29;101285.46;;;25.91;65.57
26436;BME280;15351;52.408;16.826;2023-08-17T10:06:24;101283.95;;;25.91;64.83
26436;BME280;15351;52.408;16.826;2023-08-17T10:09:42;101279.99;;;25.92;64.89
26436;BME280;15351;52.408;16.826;2023-08-17T10:23:45;101277.69;;;26.24;64.69
26436;BME280;15351;52.408;16.826;2023-08-17T10:26:46;101276.09;;;26.31;64.28
26436;BME280;15351;52.408;16.826;2023-08-17T10:39:51;101261.70;;;26.80;64.80
26436;BME280;15351;52.408;16.826;2023-08-17T10:42:53;101264.21;;;26.91;63.98
26436;BME280;15351;52.408;16.826;2023-08-17T10:46:15;101261.04;;;27.04;64.40
26436;BME280;15351;52.408;16.826;2023-08-17T10:52:39;101259.27;;;27.29;64.61
26436;BME280;15351;52.408;16.826;2023-08-17T10:55:56;101256.63;;;27.42;64.61
26436;BME280;15351;52.408;16.826;2023-08-17T10:59:40;101256.29;;;27.54;64.52
26436;BME280;15351;52.408;16.826;2023-08-17T11:08:43;101245.78;;;27.90;63.39
26436;BME280;15351;52.408;16.826;2023-08-17T11:11:50;101241.94;;;27.97;62.68
26436;BME280;15351;52.408;16.826;2023-08-17T11:14:12;101239.44;;;28.02;62.05
26436;BME280;15351;52.408;16.826;2023-08-17T11:16:50;101239.34;;;28.05;61.43
26436;BME280;15351;52.408;16.826;2023-08-17T11:19:40;101231.91;;;28.07;60.94
26436;BME280;15351;52.408;16.826;2023-08-17T11:22:16;101227.10;;;28.11;61.49
26436;BME280;15351;52.408;16.826;2023-08-17T11:25:26;101222.81;;;28.18;62.89
26436;BME280;15351;52.408;16.826;2023-08-17T11:31:34;101215.56;;;28.23;61.61
26436;BME280;15351;52.408;16.826;2023-08-17T11:34:30;101216.73;;;28.32;61.50
26436;BME280;15351;52.408;16.826;2023-08-17T11:37:51;101218.84;;;28.40;61.61
26436;BME280;15351;52.408;16.826;2023-08-17T11:40:45;101216.38;;;28.45;61.60
26436;BME280;15351;52.408;16.826;2023-08-17T11:44:05;101213.85;;;28.56;62.09
26436;BME280;15351;52.408;16.826;2023-08-17T11:46:35;101215.00;;;28.63;62.11
26436;BME280;15351;52.408;16.826;2023-08-17T11:49:19;101210.79;;;28.69;61.99
26436;BME280;15351;52.408;16.826;2023-08-17T11:55:09;101209.96;;;28.72;60.76
26436;BME280;15351;52.408;16.826;2023-08-17T11:58:19;101211.20;;;28.78;61.10
26436;BME280;15351;52.408;16.826;2023-08-17T12:01:12;101201.38;;;28.82;61.00
26436;BME280;15351;52.408;16.826;2023-08-17T12:04:04;101209.07;;;28.90;60.89
26436;BME280;15351;52.408;16.826;2023-08-17T12:07:13;101207.88;;;28.94;61.07
26436;BME280;15351;52.408;16.826;2023-08-17T12:10:14;101203.54;;;28.93;60.69
26436;BME280;15351;52.408;16.826;2023-08-17T12:13:03;101206.31;;;28.89;60.59
26436;BME280;15351;52.408;16.826;2023-08-17T12:15:54;101198.79;;;28.88;60.19
26436;BME280;15351;52.408;16.826;2023-08-17T12:19:13;101199.20;;;28.91;59.87
26436;BME280;15351;52.408;16.826;2023-08-17T12:21:40;101197.91;;;28.91;59.60
26436;BME280;15351;52.408;16.826;2023-08-17T12:24:17;101194.55;;;28.86;58.93
26436;BME280;15351;52.408;16.826;2023-08-17T12:27:04;101191.94;;;28.82;58.96
26436;BME280;15351;52.408;16.826;2023-08-17T12:29:53;101191.88;;;28.83;59.61
26436;BME280;15351;52.408;16.826;2023-08-17T12:33:07;101188.27;;;28.87;59.33
26436;BME280;15351;52.408;16.826;2023-08-17T12:35:27;101187.48;;;28.85;59.18
26436;BME280;15351;52.408;16.826;2023-08-17T12:38:43;101182.52;;;28.80;59.44
26436;BME280;15351;52.408;16.826;2023-08-17T12:40:58;101179.86;;;28.79;60.39
26436;BME280;15351;52.408;16.826;2023-08-17T12:43:47;101182.04;;;28.82;60.46
26436;BME280;15351;52.408;16.826;2023-08-17T12:46:48;101184.05;;;28.85;60.12
26436;BME280;15351;52.408;16.826;2023-08-17T12:52:23;101187.11;;;28.88;59.82
26436;BME280;15351;52.408;16.826;2023-08-17T12:54:56;101185.06;;;28.89;59.64
26436;BME280;15351;52.408;16.826;2023-08-17T13:03:33;101179.40;;;28.91;60.38
26436;BME280;15351;52.408;16.826;2023-08-17T13:09:03;101178.68;;;28.90;59.91
26436;BME280;15351;52.408;16.826;2023-08-17T13:12:05;101169.36;;;28.85;59.40
26436;BME280;15351;52.408;16.826;2023-08-17T13:15:36;101166.14;;;28.82;59.90
26436;BME280;15351;52.408;16.826;2023-08-17T13:18:13;101173.30;;;28.80;60.49
26436;BME280;15351;52.408;16.826;2023-08-17T13:24:55;101167.11;;;28.75;59.66
26436;BME280;15351;52.408;16.826;2023-08-17T13:27:07;101162.44;;;28.71;59.60
26436;BME280;15351;52.408;16.826;2023-08-17T13:33:17;101145.36;;;28.64;59.89
26436;BME280;15351;52.408;16.826;2023-08-17T13:36:04;101154.71;;;28.70;60.22
26436;BME280;15351;52.408;16.826;2023-08-17T13:38:42;101146.88;;;28.71;60.63
26436;BME280;15351;52.408;16.826;2023-08-17T13:42:03;101151.15;;;28.73;60.59
26436;BME280;15351;52.408;16.826;2023-08-17T13:44:58;101144.38;;;28.74;60.66
26436;BME280;15351;52.408;16.826;2023-08-17T13:51:05;101144.65;;;28.77;60.70
26436;BME280;15351;52.408;16.826;2023-08-17T13:57:34;101144.42;;;28.71;60.45
26436;BME280;15351;52.408;16.826;2023-08-17T14:00:43;101132.48;;;28.70;60.67
26436;BME280;15351;52.408;16.826;2023-08-17T14:03:13;101136.64;;;28.70;60.85
26436;BME280;15351;52.408;16.826;2023-08-17T14:06:33;101137.48;;;28.72;61.04
26436;BME280;15351;52.408;16.826;2023-08-17T14:12:28;101134.64;;;28.67;61.09
26436;BME280;15351;52.408;16.826;2023-08-17T14:15:40;101135.20;;;28.66;61.04
26436;BME280;15351;52.408;16.826;2023-08-17T14:18:17;101123.96;;;28.61;60.84
26436;BME280;15351;52.408;16.826;2023-08-17T14:21:50;101127.67;;;28.60;60.51
26436;BME280;15351;52.408;16.826;2023-08-17T14:24:18;101122.32;;;28.57;60.75
26436;BME280;15351;52.408;16.826;2023-08-17T14:26:57;101131.39;;;28.60;60.81
26436;BME280;15351;52.408;16.826;2023-08-17T14:35:56;101128.23;;;28.53;60.99
26436;BME280;15351;52.408;16.826;2023-08-17T14:38:27;101124.54;;;28.48;61.29
26436;BME280;15351;52.408;16.826;2023-08-17T14:41:12;101131.16;;;28.50;61.64
26436;BME280;15351;52.408;16.826;2023-08-17T14:43:47;101135.66;;;28.50;61.96
26436;BME280;15351;52.408;16.826;2023-08-17T14:46:28;101135.55;;;28.53;61.94
26436;BME280;15351;52.408;16.826;2023-08-17T14:49:03;101129.94;;;28.54;61.80
26436;BME280;15351;52.408;16.826;2023-08-17T14:51:37;101134.06;;;28.56;61.85
26436;BME280;15351;52.408;16.826;2023-08-17T14:54:07;101132.34;;;28.55;61.92
26436;BME280;15351;52.408;16.826;2023-08-17T14:56:37;101124.21;;;28.52;62.09
26436;BME280;15351;52.408;16.826;2023-08-17T14:59:14;101127.95;;;28.54;61.81
26436;BME280;15351;52.408;16.826;2023-08-17T15:02:39;101119.59;;;28.47;61.68
26436;BME280;15351;52.408;16.826;2023-08-17T15:05:44;101127.21;;;28.49;61.71
26436;BME280;15351;52.408;16.826;2023-08-17T15:08:18;101126.23;;;28.45;61.39
26436;BME280;15351;52.408;16.826;2023-08-17T15:10:51;101122.63;;;28.39;61.22
26436;BME280;15351;52.408;16.826;2023-08-17T15:13:43;101124.63;;;28.35;61.39
26436;BME280;15351;52.408;16.826;2023-08-17T15:16:41;101124.01;;;28.31;61.55
26436;BME280;15351;52.408;16.826;2023-08-17T15:19:08;101118.44;;;28.30;61.61
26436;BME280;15351;52.408;16.826;2023-08-17T15:21:42;101120.69;;;28.32;61.67
26436;BME280;15351;52.408;16.826;2023-08-17T15:24:55;101116.71;;;28.33;61.25
26436;BME280;15351;52.408;16.826;2023-08-17T15:27:35;101115.34;;;28.33;61.17
26436;BME280;15351;52.408;16.826;2023-08-17T15:30:22;101109.20;;;28.32;61.06
26436;BME280;15351;52.408;16.826;2023-08-17T15:33:23;101108.55;;;28.33;61.04
26436;BME280;15351;52.408;16.826;2023-08-17T15:35:52;101108.58;;;28.31;61.26
26436;BME280;15351;52.408;16.826;2023-08-17T15:38:55;101114.16;;;28.31;61.22
26436;BME280;15351;52.408;16.826;2023-08-17T15:45:33;101110.50;;;28.31;61.81
26436;BME280;15351;52.408;16.826;2023-08-17T15:51:49;101101.84;;;28.35;61.65
26436;BME280;15351;52.408;16.826;2023-08-17T15:54:43;101092.95;;;28.36;61.54
26436;BME280;15351;52.408;16.826;2023-08-17T16:00:52;101088.68;;;28.42;61.94
26436;BME280;15351;52.408;16.826;2023-08-17T16:17:37;101091.95;;;28.37;62.32
26436;BME280;15351;52.408;16.826;2023-08-17T16:20:16;101095.10;;;28.33;62.05
26436;BME280;15351;52.408;16.826;2023-08-17T16:23:28;101090.77;;;28.28;62.29
26436;BME280;15351;52.408;16.826;2023-08-17T16:27:13;101091.60;;;28.24;62.22
26436;BME280;15351;52.408;16.826;2023-08-17T16:30:22;101091.05;;;28.15;62.47
26436;BME280;15351;52.408;16.826;2023-08-17T16:33:03;101098.60;;;28.11;62.90
26436;BME280;15351;52.408;16.826;2023-08-17T16:39:47;101100.55;;;28.06;63.10
26436;BME280;15351;52.408;16.826;2023-08-17T16:42:39;101099.02;;;28.01;62.93
26436;BME280;15351;52.408;16.826;2023-08-17T16:49:19;101106.81;;;27.98;63.65
26436;BME280;15351;52.408;16.826;2023-08-17T16:52:08;101097.88;;;27.95;63.76
26436;BME280;15351;52.408;16.826;2023-08-17T16:54:44;101094.20;;;27.93;63.66
26436;BME280;15351;52.408;16.826;2023-08-17T16:57:46;101088.02;;;27.89;63.72
26436;BME280;15351;52.408;16.826;2023-08-17T17:00:54;101099.52;;;27.89;63.91
26436;BME280;15351;52.408;16.826;2023-08-17T17:03:25;101104.73;;;27.87;64.46
26436;BME280;15351;52.408;16.826;2023-08-17T17:05:57;101106.27;;;27.85;64.66
26436;BME280;15351;52.408;16.826;2023-08-17T17:08:35;101104.55;;;27.85;65.13
26436;BME280;15351;52.408;16.826;2023-08-17T17:11:10;101106.65;;;27.85;64.95
26436;BME280;15351;52.408;16.826;2023-08-17T17:13:40;101107.63;;;27.81;64.76
26436;BME280;15351;52.408;16.826;2023-08-17T17:16:09;101110.54;;;27.75;64.83
26436;BME280;15351;52.408;16.826;2023-08-17T17:18:46;101124.38;;;27.76;65.22
26436;BME280;15351;52.408;16.826;2023-08-17T17:22:42;101124.34;;;27.75;65.60
26436;BME280;15351;52.408;16.826;2023-08-17T17:25:10;101122.60;;;27.72;65.73
26436;BME280;15351;52.408;16.826;2023-08-17T17:31:29;101114.46;;;27.61;65.76
26436;BME280;15351;52.408;16.826;2023-08-17T17:34:26;101115.87;;;27.62;65.95
26436;BME280;15351;52.408;16.826;2023-08-17T17:37:38;101118.91;;;27.59;66.01
26436;BME280;15351;52.408;16.826;2023-08-17T17:41:07;101120.92;;;27.53;66.26
26436;BME280;15351;52.408;16.826;2023-08-17T17:44:15;101128.49;;;27.51;66.35
26436;BME280;15351;52.408;16.826;2023-08-17T17:46:45;101132.41;;;27.48;66.48
26436;BME280;15351;52.408;16.826;2023-08-17T17:49:20;101130.08;;;27.46;66.54
26436;BME280;15351;52.408;16.826;2023-08-17T17:54:33;101136.49;;;27.42;66.38
26436;BME280;15351;52.408;16.826;2023-08-17T17:57:18;101132.20;;;27.35;66.44
26436;BME280;15351;52.408;16.826;2023-08-17T17:59:55;101141.57;;;27.33;66.41
26436;BME280;15351;52.408;16.826;2023-08-17T18:03:04;101146.59;;;27.29;66.64
26436;BME280;15351;52.408;16.826;2023-08-17T18:05:46;101146.89;;;27.25;66.85
26436;BME280;15351;52.408;16.826;2023-08-17T18:08:20;101150.77;;;27.24;67.04
26436;BME280;15351;52.408;16.826;2023-08-17T18:10:47;101146.13;;;27.17;67.30
26436;BME280;15351;52.408;16.826;2023-08-17T18:13:23;101143.42;;;27.12;67.29
26436;BME280;15351;52.408;16.826;2023-08-17T18:19:12;101140.04;;;27.06;67.63
26436;BME280;15351;52.408;16.826;2023-08-17T18:21:42;101135.20;;;27.05;67.59
26436;BME280;15351;52.408;16.826;2023-08-17T18:24:30;101130.90;;;27.02;67.40
26436;BME280;15351;52.408;16.826;2023-08-17T18:27:25;101139.06;;;26.95;67.43
26436;BME280;15351;52.408;16.826;2023-08-17T18:32:37;101136.20;;;26.91;67.76
26436;BME280;15351;52.408;16.826;2023-08-17T18:35:10;101140.53;;;26.89;67.66
26436;BME280;15351;52.408;16.826;2023-08-17T18:37:57;101140.96;;;26.87;67.87
26436;BME280;15351;52.408;16.826;2023-08-17T18:41:11;101129.84;;;26.83;67.86
26436;BME280;15351;52.408;16.826;2023-08-17T18:44:12;101126.05;;;26.80;67.95
26436;BME280;15351;52.408;16.826;2023-08-17T18:47:10;101123.16;;;26.75;68.32
26436;BME280;15351;52.408;16.826;2023-08-17T18:49:48;101118.80;;;26.71;68.48
26436;BME280;15351;52.408;16.826;2023-08-17T18:52:46;101119.96;;;26.65;68.79
26436;BME280;15351;52.408;16.826;2023-08-17T18:55:14;101127.96;;;26.66;68.95
26436;BME280;15351;52.408;16.826;2023-08-17T18:58:15;101127.95;;;26.65;69.04
26436;BME280;15351;52.408;16.826;2023-08-17T19:01:20;101120.45;;;26.63;69.33
26436;BME280;15351;52.408;16.826;2023-08-17T19:07:38;101113.73;;;26.57;69.46
26436;BME280;15351;52.408;16.826;2023-08-17T19:17:55;101117.13;;;26.51;69.44
26436;BME280;15351;52.408;16.826;2023-08-17T19:24:42;101119.17;;;26.44;69.22
26436;BME280;15351;52.408;16.826;2023-08-17T19:28:10;101128.92;;;26.42;69.20
26436;BME280;15351;52.408;16.826;2023-08-17T19:31:32;101128.77;;;26.39;69.13
26436;BME280;15351;52.408;16.826;2023-08-17T19:38:10;101123.98;;;26.34;69.24
26436;BME280;15351;52.408;16.826;2023-08-17T19:41:04;101123.95;;;26.32;69.20
26436;BME280;15351;52.408;16.826;2023-08-17T19:43:58;101119.81;;;26.28;69.06
26436;BME280;15351;52.408;16.826;2023-08-17T19:46:37;101115.40;;;26.21;69.20
26436;BME280;15351;52.408;16.826;2023-08-17T19:49:28;101113.01;;;26.15;69.20
26436;BME280;15351;52.408;16.826;2023-08-17T19:52:48;101106.23;;;26.09;69.36
26436;BME280;15351;52.408;16.826;2023-08-17T19:56:28;101103.23;;;26.04;69.50
26436;BME280;15351;52.408;16.826;2023-08-17T20:00:03;101105.77;;;26.02;69.44
26436;BME280;15351;52.408;16.826;2023-08-17T20:09:58;101102.85;;;25.94;69.32